sensor_id;sensor_type;location;lat;lon;timestamp;pressure;altitude;pressure_sealevel;temperature;humidity
22775;BME280;11554;51.106;3.684;2022-08-03T00:00:00;101551.4;;;19.00;91.54
22775;BME280;11554;51.106;3.684;2022-08-03T00:05:00;101544.73000000001;;;18.96;93.62
22775;BME280;11554;51.106;3.684;2022-08-03T00:10:00;101545.95000000001;;;18.89;93.6
22775;BME280;11554;51.106;3.684;2022-08-03T00:15:00;101543.83;;;18.82;93.6
22775;BME280;11554;51.106;3.684;2022-08-03T00:20:00;101543.76999999999;;;18.76;94.98
22775;BME280;11554;51.106;3.684;2022-08-03T00:25:00;101543.57;;;18.71;94.96
22775;BME280;11554;51.106;3.684;2022-08-03T00:30:00;101543.62999999999;;;18.69;96.06
22775;BME280;11554;51.106;3.684;2022-08-03T00:35:00;101539.65;;;18.65;96.05
22775;BME280;11554;51.106;3.684;2022-08-03T00:40:00;101537.77;;;18.62;97.71
22775;BME280;11554;51.106;3.684;2022-08-03T00:45:00;101536.89;;;18.59;98.13
22775;BME280;11554;51.106;3.684;2022-08-03T00:50:00;101530.29000000001;;;18.54;98.16
22775;BME280;11554;51.106;3.684;2022-08-03T00:55:00;101526.73;;;18.47;98.06
22775;BME280;11554;51.106;3.684;2022-08-03T01:00:00;101522.13;;;18.41;98.41
22775;BME280;11554;51.106;3.684;2022-08-03T01:05:00;101516.48;;;18.35;98.98
22775;BME280;11554;51.106;3.684;2022-08-03T01:10:02;101515.75;;;18.26;98.92
22775;BME280;11554;51.106;3.684;2022-08-03T01:15:02;101503.81;;;18.21;99.08
22775;BME280;11554;51.106;3.684;2022-08-03T01:20:02;101508.34;;;18.12;98.05
22775;BME280;11554;51.106;3.684;2022-08-03T01:25:02;101501.65;;;18.07;98.12
22775;BME280;11554;51.106;3.684;2022-08-03T01:30:02;101499.45;;;18.01;98.91
22775;BME280;11554;51.106;3.684;2022-08-03T01:35:01;101502.53;;;18.00;98.66
22775;BME280;11554;51.106;3.684;2022-08-03T01:40:00;101494.33;;;17.93;98.67
22775;BME280;11554;51.106;3.684;2022-08-03T01:45:00;101494.19;;;17.90;100.0
22775;BME280;11554;51.106;3.684;2022-08-03T01:50:00;101495.37;;;17.93;100.0
22775;BME280;11554;51.106;3.684;2022-08-03T01:55:00;101495.68000000001;;;17.84;100.0
22775;BME280;11554;51.106;3.684;2022-08-03T02:00:00;101494.34;;;17.77;99.91
22775;BME280;11554;51.106;3.684;2022-08-03T02:05:00;101493.61;;;17.74;100.0
22775;BME280;11554;51.106;3.684;2022-08-03T02:10:00;101495.1;;;17.71;100.0
22775;BME280;11554;51.106;3.684;2022-08-03T02:15:00;101490.23;;;17.74;100.0
22775;BME280;11554;51.106;3.684;2022-08-03T02:20:00;101486.58;;;17.72;100.0
22775;BME280;11554;51.106;3.684;2022-08-03T02:25:00;101485.0;;;17.73;100.0
22775;BME280;11554;51.106;3.684;2022-08-03T02:30:00;101485.02;;;17.71;100.0
22775;BME280;11554;51.106;3.684;2022-08-03T02:35:00;101480.15000000001;;;17.67;100.0
22775;BME280;11554;51.106;3.684;2022-08-03T02:40:01;101476.12000000001;;;17.64;100.0
22775;BME280;11554;51.106;3.684;2022-08-03T02:45:01;101470.88;;;17.59;100.0
22775;BME280;11554;51.106;3.684;2022-08-03T02:50:00;101470.43;;;17.54;100.0
22775;BME280;11554;51.106;3.684;2022-08-03T02:55:01;101467.57;;;17.46;100.0
22775;BME280;11554;51.106;3.684;2022-08-03T03:00:00;101467.03;;;17.40;100.0
22775;BME280;11554;51.106;3.684;2022-08-03T03:05:00;101466.33;;;17.39;100.0
22775;BME280;11554;51.106;3.684;2022-08-03T03:10:00;101462.17;;;17.40;100.0
22775;BME280;11554;51.106;3.684;2022-08-03T03:15:00;101460.86;;;17.37;100.0
22775;BME280;11554;51.106;3.684;2022-08-03T03:20:00;101463.95;;;17.33;100.0
22775;BME280;11554;51.106;3.684;2022-08-03T03:25:00;101462.01999999999;;;17.33;100.0
22775;BME280;11554;51.106;3.684;2022-08-03T03:30:00;101459.56;;;17.32;100.0
22775;BME280;11554;51.106;3.684;2022-08-03T03:35:00;101462.62000000001;;;17.31;100.0
22775;BME280;11554;51.106;3.684;2022-08-03T03:40:00;101463.31;;;17.31;100.0
22775;BME280;11554;51.106;3.684;2022-08-03T03:45:02;101466.5;;;17.24;100.0
22775;BME280;11554;51.106;3.684;2022-08-03T03:50:00;101463.09;;;17.17;100.0
22775;BME280;11554;51.106;3.684;2022-08-03T03:55:00;101463.71;;;17.15;100.0
22775;BME280;11554;51.106;3.684;2022-08-03T04:00:00;101467.39;;;17.12;100.0
22775;BME280;11554;51.106;3.684;2022-08-03T04:05:00;101467.53;;;17.09;100.0
22775;BME280;11554;51.106;3.684;2022-08-03T04:10:00;101463.05;;;17.07;100.0
22775;BME280;11554;51.106;3.684;2022-08-03T04:15:00;101463.49;;;17.06;100.0
22775;BME280;11554;51.106;3.684;2022-08-03T04:20:00;101471.09;;;17.06;100.0
22775;BME280;11554;51.106;3.684;2022-08-03T04:25:00;101477.28;;;17.06;100.0
22775;BME280;11554;51.106;3.684;2022-08-03T04:30:01;101475.92;;;17.10;100.0
22775;BME280;11554;51.106;3.684;2022-08-03T04:35:00;101480.9;;;17.13;100.0
22775;BME280;11554;51.106;3.684;2022-08-03T04:40:00;101480.45;;;17.18;100.0
22775;BME280;11554;51.106;3.684;2022-08-03T04:45:00;101483.90000000001;;;17.25;100.0
22775;BME280;11554;51.106;3.684;2022-08-03T04:50:00;101484.99;;;17.35;100.0
22775;BME280;11554;51.106;3.684;2022-08-03T04:55:00;101480.74;;;17.47;100.0
22775;BME280;11554;51.106;3.684;2022-08-03T05:00:00;101485.47;;;17.72;100.0
22775;BME280;11554;51.106;3.684;2022-08-03T05:05:00;101486.1;;;18.37;100.0
22775;BME280;11554;51.106;3.684;2022-08-03T05:10:00;101486.61;;;18.73;100.0
22775;BME280;11554;51.106;3.684;2022-08-03T05:15:00;101489.04;;;18.90;100.0
22775;BME280;11554;51.106;3.684;2022-08-03T05:20:00;101493.24;;;19.00;100.0
22775;BME280;11554;51.106;3.684;2022-08-03T05:25:00;101495.92;;;19.26;100.0
22775;BME280;11554;51.106;3.684;2022-08-03T05:30:00;101497.24;;;19.52;100.0
22775;BME280;11554;51.106;3.684;2022-08-03T05:35:00;101501.62;;;19.92;100.0
22775;BME280;11554;51.106;3.684;2022-08-03T05:40:00;101504.04999999999;;;20.36;100.0
22775;BME280;11554;51.106;3.684;2022-08-03T05:45:02;101506.98;;;20.91;100.0
22775;BME280;11554;51.106;3.684;2022-08-03T05:50:00;101509.27;;;21.60;94.89
22775;BME280;11554;51.106;3.684;2022-08-03T05:55:00;101509.44;;;22.56;95.03
22775;BME280;11554;51.106;3.684;2022-08-03T06:00:00;101508.33;;;23.01;88.95
22775;BME280;11554;51.106;3.684;2022-08-03T06:05:00;101507.17;;;23.77;86.88
22775;BME280;11554;51.106;3.684;2022-08-03T06:10:00;101509.03;;;24.59;82.41
22775;BME280;11554;51.106;3.684;2022-08-03T06:15:00;101513.06;;;25.30;80.65
22775;BME280;11554;51.106;3.684;2022-08-03T06:20:00;101512.13;;;25.95;78.08
22775;BME280;11554;51.106;3.684;2022-08-03T06:25:00;101521.22;;;26.58;75.41
22775;BME280;11554;51.106;3.684;2022-08-03T06:30:00;101524.28;;;27.12;70.99
22775;BME280;11554;51.106;3.684;2022-08-03T06:35:00;101523.67;;;27.65;68.23
22775;BME280;11554;51.106;3.684;2022-08-03T06:40:00;101520.04;;;28.06;69.01
22775;BME280;11554;51.106;3.684;2022-08-03T06:45:00;101526.87;;;28.13;67.34
22775;BME280;11554;51.106;3.684;2022-08-03T06:50:00;101529.89;;;28.65;66.25
22775;BME280;11554;51.106;3.684;2022-08-03T06:55:00;101529.92;;;28.68;65.2
22775;BME280;11554;51.106;3.684;2022-08-03T07:00:00;101533.86;;;28.89;63.16
22775;BME280;11554;51.106;3.684;2022-08-03T07:05:00;101531.05;;;29.17;61.8
22775;BME280;11554;51.106;3.684;2022-08-03T07:10:00;101532.24;;;29.22;62.97
22775;BME280;11554;51.106;3.684;2022-08-03T07:15:00;101536.78;;;29.32;62.87
22775;BME280;11554;51.106;3.684;2022-08-03T07:20:01;101538.56;;;29.70;61.9
22775;BME280;11554;51.106;3.684;2022-08-03T07:25:00;101539.33;;;30.04;61.48
22775;BME280;11554;51.106;3.684;2022-08-03T07:30:00;101534.56;;;30.33;59.27
22775;BME280;11554;51.106;3.684;2022-08-03T07:35:00;101536.13;;;30.27;59.86
22775;BME280;11554;51.106;3.684;2022-08-03T07:40:00;101540.31;;;30.68;58.59
22775;BME280;11554;51.106;3.684;2022-08-03T07:45:00;101542.0;;;30.94;58.47
22775;BME280;11554;51.106;3.684;2022-08-03T07:50:00;101542.38;;;31.16;58.25
22775;BME280;11554;51.106;3.684;2022-08-03T07:55:00;101542.7;;;31.20;57.13
22775;BME280;11554;51.106;3.684;2022-08-03T08:00:00;101537.15999999999;;;30.73;57.51
22775;BME280;11554;51.106;3.684;2022-08-03T08:05:00;101543.53;;;30.90;57.77
22775;BME280;11554;51.106;3.684;2022-08-03T08:10:00;101539.06;;;31.18;56.92
22775;BME280;11554;51.106;3.684;2022-08-03T08:15:00;101539.28;;;31.23;56.0
22775;BME280;11554;51.106;3.684;2022-08-03T08:20:00;101531.7;;;31.60;55.32
22775;BME280;11554;51.106;3.684;2022-08-03T08:25:00;101534.48;;;31.48;55.56
22775;BME280;11554;51.106;3.684;2022-08-03T08:30:03;101527.17;;;31.72;55.73
22775;BME280;11554;51.106;3.684;2022-08-03T08:35:00;101527.70000000001;;;31.74;55.68
22775;BME280;11554;51.106;3.684;2022-08-03T08:40:00;101527.47;;;31.76;55.47
22775;BME280;11554;51.106;3.684;2022-08-03T08:45:00;101525.44;;;32.40;54.13
22775;BME280;11554;51.106;3.684;2022-08-03T08:50:00;101523.41;;;32.45;53.18
22775;BME280;11554;51.106;3.684;2022-08-03T08:55:01;101526.95;;;32.68;53.67
22775;BME280;11554;51.106;3.684;2022-08-03T09:00:00;101523.36;;;32.27;53.82
22775;BME280;11554;51.106;3.684;2022-08-03T09:05:00;101518.2;;;32.47;52.68
22775;BME280;11554;51.106;3.684;2022-08-03T09:10:00;101518.58;;;32.58;52.31
22775;BME280;11554;51.106;3.684;2022-08-03T09:20:04;101517.16;;;33.03;51.88
22775;BME280;11554;51.106;3.684;2022-08-03T09:25:01;101521.34;;;33.07;50.25
22775;BME280;11554;51.106;3.684;2022-08-03T09:30:00;101520.68000000001;;;32.94;50.15
22775;BME280;11554;51.106;3.684;2022-08-03T09:35:02;101517.78;;;33.06;50.22
22775;BME280;11554;51.106;3.684;2022-08-03T09:40:00;101515.48;;;33.05;51.11
22775;BME280;11554;51.106;3.684;2022-08-03T09:45:00;101512.89;;;33.52;49.29
22775;BME280;11554;51.106;3.684;2022-08-03T09:50:00;101516.33;;;33.37;49.08
22775;BME280;11554;51.106;3.684;2022-08-03T09:55:00;101516.23;;;33.68;48.27
22775;BME280;11554;51.106;3.684;2022-08-03T10:00:08;101509.12;;;33.85;49.03
22775;BME280;11554;51.106;3.684;2022-08-03T10:05:00;101510.08;;;34.33;48.77
22775;BME280;11554;51.106;3.684;2022-08-03T10:10:00;101503.44;;;34.21;47.64
22775;BME280;11554;51.106;3.684;2022-08-03T10:15:00;101504.06;;;34.58;47.54
22775;BME280;11554;51.106;3.684;2022-08-03T10:20:00;101501.12000000001;;;34.63;48.15
22775;BME280;11554;51.106;3.684;2022-08-03T10:25:02;101501.5;;;34.88;46.61
22775;BME280;11554;51.106;3.684;2022-08-03T10:30:00;101497.74;;;35.37;46.91
22775;BME280;11554;51.106;3.684;2022-08-03T10:35:02;101488.01;;;35.73;46.76
22775;BME280;11554;51.106;3.684;2022-08-03T10:40:00;101490.66;;;36.05;45.2
22775;BME280;11554;51.106;3.684;2022-08-03T10:45:02;101486.42;;;36.03;44.55
22775;BME280;11554;51.106;3.684;2022-08-03T10:50:00;101486.04000000001;;;35.97;45.19
22775;BME280;11554;51.106;3.684;2022-08-03T10:55:00;101479.89;;;36.06;45.88
22775;BME280;11554;51.106;3.684;2022-08-03T11:00:00;101477.71;;;36.84;44.08
22775;BME280;11554;51.106;3.684;2022-08-03T11:10:00;101463.14;;;36.95;44.13
22775;BME280;11554;51.106;3.684;2022-08-03T11:15:00;101461.92;;;36.89;43.71
22775;BME280;11554;51.106;3.684;2022-08-03T11:20:00;101453.06;;;37.35;43.35
22775;BME280;11554;51.106;3.684;2022-08-03T11:25:00;101449.15999999999;;;37.06;42.44
22775;BME280;11554;51.106;3.684;2022-08-03T11:30:01;101455.74;;;37.17;42.9
22775;BME280;11554;51.106;3.684;2022-08-03T11:35:07;101456.92;;;37.33;42.54
22775;BME280;11554;51.106;3.684;2022-08-03T11:40:00;101452.73;;;36.68;42.92
22775;BME280;11554;51.106;3.684;2022-08-03T11:45:00;101448.72;;;37.13;43.09
22775;BME280;11554;51.106;3.684;2022-08-03T11:50:00;101449.37999999999;;;37.20;42.81
22775;BME280;11554;51.106;3.684;2022-08-03T11:55:00;101446.44;;;36.99;41.86
22775;BME280;11554;51.106;3.684;2022-08-03T12:00:00;101445.64;;;37.67;42.42
22775;BME280;11554;51.106;3.684;2022-08-03T12:05:00;101449.69;;;37.97;41.24
22775;BME280;11554;51.106;3.684;2022-08-03T12:10:07;101447.49;;;38.04;42.01
22775;BME280;11554;51.106;3.684;2022-08-03T12:15:00;101446.47;;;37.70;41.87
22775;BME280;11554;51.106;3.684;2022-08-03T12:20:00;101446.94;;;37.80;40.97
22775;BME280;11554;51.106;3.684;2022-08-03T12:25:00;101444.61;;;37.82;41.16
22775;BME280;11554;51.106;3.684;2022-08-03T12:30:00;101442.64;;;38.28;41.52
22775;BME280;11554;51.106;3.684;2022-08-03T12:35:00;101434.59;;;38.13;42.22
22775;BME280;11554;51.106;3.684;2022-08-03T12:40:00;101435.14;;;38.43;41.54
22775;BME280;11554;51.106;3.684;2022-08-03T12:50:00;101432.09000000001;;;38.31;40.92
22775;BME280;11554;51.106;3.684;2022-08-03T12:55:00;101425.81;;;38.18;41.14
22775;BME280;11554;51.106;3.684;2022-08-03T13:00:08;101426.15;;;38.50;41.07
22775;BME280;11554;51.106;3.684;2022-08-03T13:05:08;101421.01;;;38.58;39.57
22775;BME280;11554;51.106;3.684;2022-08-03T13:10:00;101419.65;;;38.63;40.38
22775;BME280;11554;51.106;3.684;2022-08-03T13:15:00;101416.2;;;38.89;39.04
22775;BME280;11554;51.106;3.684;2022-08-03T13:20:00;101402.78;;;38.28;41.59
22775;BME280;11554;51.106;3.684;2022-08-03T13:25:00;101404.49;;;38.71;40.49
22775;BME280;11554;51.106;3.684;2022-08-03T13:30:00;101396.26;;;39.51;40.33
22775;BME280;11554;51.106;3.684;2022-08-03T13:35:00;101393.42;;;39.75;38.12
22775;BME280;11554;51.106;3.684;2022-08-03T13:40:00;101395.31;;;38.89;39.19
22775;BME280;11554;51.106;3.684;2022-08-03T13:45:00;101382.0;;;37.15;40.86
22775;BME280;11554;51.106;3.684;2022-08-03T13:50:00;101377.33;;;37.91;40.59
22775;BME280;11554;51.106;3.684;2022-08-03T13:55:00;101378.0;;;37.74;40.75
22775;BME280;11554;51.106;3.684;2022-08-03T14:00:00;101371.41;;;37.47;40.55
22775;BME280;11554;51.106;3.684;2022-08-03T14:05:00;101365.06000000001;;;36.50;42.28
22775;BME280;11554;51.106;3.684;2022-08-03T14:15:00;101358.11;;;37.42;41.42
22775;BME280;11554;51.106;3.684;2022-08-03T14:20:00;101352.22;;;38.28;41.42
22775;BME280;11554;51.106;3.684;2022-08-03T14:25:00;101354.9;;;38.46;39.78
22775;BME280;11554;51.106;3.684;2022-08-03T14:30:00;101347.31;;;38.41;38.89
22775;BME280;11554;51.106;3.684;2022-08-03T14:35:00;101336.49;;;38.98;40.35
22775;BME280;11554;51.106;3.684;2022-08-03T14:40:00;101330.55;;;39.42;38.41
22775;BME280;11554;51.106;3.684;2022-08-03T14:45:00;101332.23000000001;;;38.54;38.86
22775;BME280;11554;51.106;3.684;2022-08-03T14:50:00;101327.08;;;38.58;39.33
22775;BME280;11554;51.106;3.684;2022-08-03T14:55:00;101326.95;;;37.73;39.68
22775;BME280;11554;51.106;3.684;2022-08-03T15:00:00;101316.86;;;36.77;40.96
22775;BME280;11554;51.106;3.684;2022-08-03T15:05:00;101316.85;;;37.66;41.1
22775;BME280;11554;51.106;3.684;2022-08-03T15:10:00;101308.31;;;37.93;40.51
22775;BME280;11554;51.106;3.684;2022-08-03T15:15:00;101300.57;;;38.05;38.81
22775;BME280;11554;51.106;3.684;2022-08-03T15:20:00;101289.51;;;36.72;40.56
22775;BME280;11554;51.106;3.684;2022-08-03T15:25:01;101285.02;;;37.35;40.32
22775;BME280;11554;51.106;3.684;2022-08-03T15:30:00;101282.73000000001;;;38.21;39.46
22775;BME280;11554;51.106;3.684;2022-08-03T15:35:00;101281.7;;;38.11;39.53
22775;BME280;11554;51.106;3.684;2022-08-03T15:40:00;101271.90000000001;;;38.27;40.4
22775;BME280;11554;51.106;3.684;2022-08-03T15:45:00;101262.94;;;38.57;38.47
22775;BME280;11554;51.106;3.684;2022-08-03T15:50:00;101260.43;;;38.66;39.29
22775;BME280;11554;51.106;3.684;2022-08-03T15:55:00;101258.12;;;38.88;39.07
22775;BME280;11554;51.106;3.684;2022-08-03T16:00:00;101256.69;;;38.57;38.58
22775;BME280;11554;51.106;3.684;2022-08-03T16:05:00;101254.40999999999;;;38.41;38.74
22775;BME280;11554;51.106;3.684;2022-08-03T16:10:00;101258.95000000001;;;38.48;39.45
22775;BME280;11554;51.106;3.684;2022-08-03T16:15:00;101266.45999999999;;;37.53;46.26
22775;BME280;11554;51.106;3.684;2022-08-03T16:20:00;101262.51999999999;;;35.41;48.13
22775;BME280;11554;51.106;3.684;2022-08-03T16:25:00;101264.94;;;34.38;50.08
22775;BME280;11554;51.106;3.684;2022-08-03T16:30:00;101275.69;;;33.45;52.5
22775;BME280;11554;51.106;3.684;2022-08-03T16:35:00;101268.16;;;33.58;52.29
22775;BME280;11554;51.106;3.684;2022-08-03T16:40:00;101275.98000000001;;;33.27;52.47
22775;BME280;11554;51.106;3.684;2022-08-03T16:45:00;101273.20999999999;;;33.13;52.71
22775;BME280;11554;51.106;3.684;2022-08-03T16:50:00;101277.27;;;32.71;53.12
22775;BME280;11554;51.106;3.684;2022-08-03T16:55:00;101276.37;;;32.71;53.69
22775;BME280;11554;51.106;3.684;2022-08-03T17:00:00;101277.92;;;32.63;53.2
22775;BME280;11554;51.106;3.684;2022-08-03T17:05:00;101282.1;;;32.60;53.14
22775;BME280;11554;51.106;3.684;2022-08-03T17:10:00;101280.9;;;32.95;52.58
22775;BME280;11554;51.106;3.684;2022-08-03T17:15:00;101275.05;;;32.12;53.98
22775;BME280;11554;51.106;3.684;2022-08-03T17:20:00;101277.66;;;31.54;54.81
22775;BME280;11554;51.106;3.684;2022-08-03T17:25:02;101283.65;;;31.62;55.16
22775;BME280;11554;51.106;3.684;2022-08-03T17:30:01;101281.55;;;31.47;55.34
22775;BME280;11554;51.106;3.684;2022-08-03T17:35:00;101277.0;;;31.34;55.19
22775;BME280;11554;51.106;3.684;2022-08-03T17:40:00;101274.86;;;30.89;56.31
22775;BME280;11554;51.106;3.684;2022-08-03T17:45:00;101274.23999999999;;;30.91;56.38
22775;BME280;11554;51.106;3.684;2022-08-03T17:50:00;101276.42;;;30.64;57.24
22775;BME280;11554;51.106;3.684;2022-08-03T17:55:02;101277.5;;;30.41;57.21
22775;BME280;11554;51.106;3.684;2022-08-03T18:00:02;101276.65;;;30.16;58.06
22775;BME280;11554;51.106;3.684;2022-08-03T18:05:00;101276.75;;;29.99;58.16
22775;BME280;11554;51.106;3.684;2022-08-03T18:10:00;101288.75;;;29.59;59.55
22775;BME280;11554;51.106;3.684;2022-08-03T18:15:00;101291.21;;;29.17;60.48
22775;BME280;11554;51.106;3.684;2022-08-03T18:20:00;101288.76000000001;;;28.88;61.3
22775;BME280;11554;51.106;3.684;2022-08-03T18:25:00;101289.79000000001;;;28.67;61.99
22775;BME280;11554;51.106;3.684;2022-08-03T18:30:00;101288.79;;;28.32;62.83
22775;BME280;11554;51.106;3.684;2022-08-03T18:35:01;101293.48;;;28.31;63.21
22775;BME280;11554;51.106;3.684;2022-08-03T18:40:00;101291.38;;;28.16;63.3
22775;BME280;11554;51.106;3.684;2022-08-03T18:45:00;101299.92;;;28.08;63.58
22775;BME280;11554;51.106;3.684;2022-08-03T18:50:02;101298.0;;;27.89;63.84
22775;BME280;11554;51.106;3.684;2022-08-03T18:55:02;101300.83;;;27.67;64.26
22775;BME280;11554;51.106;3.684;2022-08-03T19:00:02;101307.62;;;27.36;64.44
22775;BME280;11554;51.106;3.684;2022-08-03T19:05:02;101311.68000000001;;;27.09;65.1
22775;BME280;11554;51.106;3.684;2022-08-03T19:10:01;101308.53;;;26.86;65.48
22775;BME280;11554;51.106;3.684;2022-08-03T19:15:02;101311.15999999999;;;26.59;66.15
22775;BME280;11554;51.106;3.684;2022-08-03T19:20:00;101314.43000000001;;;26.43;66.66
22775;BME280;11554;51.106;3.684;2022-08-03T19:25:00;101311.06;;;26.21;67.23
22775;BME280;11554;51.106;3.684;2022-08-03T19:30:02;101316.35;;;26.00;68.08
22775;BME280;11554;51.106;3.684;2022-08-03T19:35:01;101322.5;;;25.82;68.52
22775;BME280;11554;51.106;3.684;2022-08-03T19:40:00;101329.06;;;25.62;69.27
22775;BME280;11554;51.106;3.684;2022-08-03T19:45:03;101331.31;;;25.41;69.86
22775;BME280;11554;51.106;3.684;2022-08-03T19:50:00;101328.71;;;25.19;70.23
22775;BME280;11554;51.106;3.684;2022-08-03T19:55:00;101330.94;;;25.01;69.64
22775;BME280;11554;51.106;3.684;2022-08-03T20:00:00;101326.70000000001;;;24.84;70.42
22775;BME280;11554;51.106;3.684;2022-08-03T20:05:00;101319.87000000001;;;24.70;70.55
22775;BME280;11554;51.106;3.684;2022-08-03T20:10:00;101314.70000000001;;;24.54;70.71
22775;BME280;11554;51.106;3.684;2022-08-03T20:15:00;101316.24;;;24.35;71.54
22775;BME280;11554;51.106;3.684;2022-08-03T20:20:00;101318.39;;;24.18;71.76
22775;BME280;11554;51.106;3.684;2022-08-03T20:25:00;101317.3;;;24.08;72.27
22775;BME280;11554;51.106;3.684;2022-08-03T20:30:00;101316.41;;;23.89;72.45
22775;BME280;11554;51.106;3.684;2022-08-03T20:35:00;101312.68;;;23.76;73.25
22775;BME280;11554;51.106;3.684;2022-08-03T20:40:00;101318.79000000001;;;23.62;73.91
22775;BME280;11554;51.106;3.684;2022-08-03T20:45:00;101317.65000000001;;;23.55;73.69
22775;BME280;11554;51.106;3.684;2022-08-03T20:50:00;101315.85;;;23.47;73.57
22775;BME280;11554;51.106;3.684;2022-08-03T20:55:00;101316.92;;;23.35;74.01
22775;BME280;11554;51.106;3.684;2022-08-03T21:00:00;101322.17000000001;;;23.27;74.6
22775;BME280;11554;51.106;3.684;2022-08-03T21:05:00;101321.12;;;23.13;75.27
22775;BME280;11554;51.106;3.684;2022-08-03T21:10:02;101315.73;;;23.05;75.24
22775;BME280;11554;51.106;3.684;2022-08-03T21:15:01;101307.37000000001;;;22.94;74.86
22775;BME280;11554;51.106;3.684;2022-08-03T21:20:00;101301.26000000001;;;22.86;76.11
22775;BME280;11554;51.106;3.684;2022-08-03T21:25:00;101300.27;;;22.78;75.97
22775;BME280;11554;51.106;3.684;2022-08-03T21:30:00;101300.53;;;22.69;76.97
22775;BME280;11554;51.106;3.684;2022-08-03T21:35:00;101301.98000000001;;;22.58;74.99
22775;BME280;11554;51.106;3.684;2022-08-03T21:40:00;101302.42;;;22.49;77.59
22775;BME280;11554;51.106;3.684;2022-08-03T21:45:02;101297.88;;;22.36;78.5
22775;BME280;11554;51.106;3.684;2022-08-03T21:50:00;101300.66;;;22.33;77.89
22775;BME280;11554;51.106;3.684;2022-08-03T21:55:03;101301.81999999999;;;22.27;78.55
22775;BME280;11554;51.106;3.684;2022-08-03T22:00:03;101301.01;;;22.15;77.8
22775;BME280;11554;51.106;3.684;2022-08-03T22:05:00;101301.62;;;22.06;78.68
22775;BME280;11554;51.106;3.684;2022-08-03T22:10:00;101299.18000000001;;;21.97;79.44
22775;BME280;11554;51.106;3.684;2022-08-03T22:15:00;101299.08;;;21.91;79.92
22775;BME280;11554;51.106;3.684;2022-08-03T22:20:00;101300.06;;;21.81;81.01
22775;BME280;11554;51.106;3.684;2022-08-03T22:25:02;101298.46;;;21.70;80.56
22775;BME280;11554;51.106;3.684;2022-08-03T22:30:01;101301.25;;;21.63;81.69
22775;BME280;11554;51.106;3.684;2022-08-03T22:35:00;101296.86;;;21.55;81.6
22775;BME280;11554;51.106;3.684;2022-08-03T22:40:02;101292.58;;;21.43;80.68
22775;BME280;11554;51.106;3.684;2022-08-03T22:45:00;101293.40999999999;;;21.36;81.53
22775;BME280;11554;51.106;3.684;2022-08-03T22:50:01;101289.97;;;21.21;78.46
22775;BME280;11554;51.106;3.684;2022-08-03T22:55:00;101293.34;;;21.10;78.78
22775;BME280;11554;51.106;3.684;2022-08-03T23:00:00;101293.8;;;21.03;80.7
22775;BME280;11554;51.106;3.684;2022-08-03T23:05:02;101297.99;;;21.01;82.13
22775;BME280;11554;51.106;3.684;2022-08-03T23:10:00;101293.98999999999;;;20.93;83.23
22775;BME280;11554;51.106;3.684;2022-08-03T23:15:00;101296.77;;;20.85;82.72
22775;BME280;11554;51.106;3.684;2022-08-03T23:20:00;101300.97;;;20.76;83.59
22775;BME280;11554;51.106;3.684;2022-08-03T23:25:00;101305.75;;;20.71;84.08
22775;BME280;11554;51.106;3.684;2022-08-03T23:30:00;101304.86;;;20.69;85.15
22775;BME280;11554;51.106;3.684;2022-08-03T23:35:01;101307.44;;;20.58;83.86
22775;BME280;11554;51.106;3.684;2022-08-03T23:40:00;101300.7;;;20.51;83.29
22775;BME280;11554;51.106;3.684;2022-08-03T23:45:00;101294.61;;;20.47;85.79
22775;BME280;11554;51.106;3.684;2022-08-03T23:50:00;101294.78;;;20.39;86.24
22775;BME280;11554;51.106;3.684;2022-08-03T23:55:03;101295.15;;;20.29;84.92
